Terminal Aerodrome Forecast
Issued by NWS Memphis, TN

Home | Current Version | Previous Version | Text Only | Print | Product List | Glossary On
Versions: 1 2 3 4 5 6 7 8 9 10 11 12 13
351
FTUS44 KMEG 231120
TAFMKL
TAF
KMKL 231120Z 2312/2412 10007KT P6SM BKN070
     FM231500 15007KT P6SM SCT040 BKN080
     FM231800 17008KT P6SM BKN250
     FM240400 17010G16KT P6SM SCT250
     FM240700 17012G19KT P6SM BKN018=

USA.gov is the U.S. government's official web portal to all federal, state and local government web resources and services.